Terminal Aerodrome Forecast
Issued by NWS Wichita, KS

Home | Current Version | Previous Version | Graphics & Text | Print | Product List | Glossary On
Versions: 1 2 3 4 5 6 7 8 9 10 11 12 13 14 15 16 17 18 19 20
000
FTUS43 KICT 201120
TAFICT
TAF
KICT 201120Z 2012/2112 17011KT P6SM BKN250 WS020/19040KT
     FM201400 17014G23KT P6SM SCT120 BKN250
     FM201700 17023G33KT P6SM BKN110
     FM210600 17021G29KT P6SM BKN015
     FM210900 18020G28KT P6SM VCSH BKN008=

USA.gov is the U.S. government's official web portal to all federal, state and local government web resources and services.